»·PEaware :: N47DT KBUR-KLAS

N47DT :: KBUR-KLAS

FLIGHT INFORMATION

Flight Status: Arrived
Operator: Privately registered:
United States
More flights under this callsign
Pilot: Wayne C. (13792)
Aircraft: CESSNA T210 TURBO CENTURION
(T210)
More flights by this aircraft type
Origin: KBUR Bob Hope-Burbank
United States
Destination: KLAS McCarran Intl
United States
More flights between these airports :: More routes between these airports
Route: +VNY3 DAG CRESO4
File this flight plan on PilotEdge
Remarks:
Altitude:
(Current/Filed)
11,000ft
Speed:
(Current/Filed)
130kts
Departed: 25-May-20 07:47 PM
Arrived: 25-May-20 09:39 PM
Distance/Time
Traveled:
194nm/1:52
Distance/Time
To Go:
Arrived

Flight Plot

Page will automatically refresh every two minutes.

Flight plan parsing failed; only flown route is shown


Map Options




Map Legend


Flown Route
Filed Route
Departure Airport
Arrival Airport
Navaid (VOR, NDB)
Fix

Horizontal Profiles

Position Reports

Time Latitude Longitude Heading Altitude Ground
Speed
25-May-20 19:30 34.200806 -118.359407 349 729ft 0kts
25-May-20 19:31 34.200806 -118.359407 349 729ft 0kts
25-May-20 19:32 34.200806 -118.359407 349 729ft 0kts
25-May-20 19:33 34.200806 -118.359407 349 729ft 0kts
25-May-20 19:34 34.200806 -118.359407 349 729ft 0kts
25-May-20 19:35 34.200844 -118.359415 349 729ft 0kts
25-May-20 19:36 34.200956 -118.359441 349 730ft 0kts
25-May-20 19:37 34.200663 -118.358354 168 727ft 17kts
25-May-20 19:38 34.198896 -118.359770 275 722ft 8kts
25-May-20 19:39 34.199074 -118.365375 283 730ft 15kts
25-May-20 19:40 34.199084 -118.368794 242 733ft 0kts
25-May-20 19:41 34.199083 -118.368795 242 733ft 0kts
25-May-20 19:42 34.199083 -118.368795 242 733ft 0kts
25-May-20 19:43 34.199083 -118.368795 242 733ft 0kts
25-May-20 19:44 34.199080 -118.368801 241 733ft 0kts
25-May-20 19:45 34.198166 -118.369058 179 731ft 20kts
25-May-20 19:46 34.198069 -118.356725 98 846ft 77kts
25-May-20 19:47 34.185196 -118.350736 223 1529ft 67kts
25-May-20 19:48 34.169802 -118.360187 201 2036ft 82kts
25-May-20 19:49 34.154786 -118.376277 226 2753ft 77kts
25-May-20 19:50 34.139228 -118.395483 226 3425ft 82kts
25-May-20 19:51 34.135660 -118.416477 326 4183ft 69kts
25-May-20 19:52 34.150395 -118.426964 304 4683ft 78kts
25-May-20 19:53 34.165666 -118.438337 334 5260ft 74kts
25-May-20 19:54 34.180943 -118.447541 335 5815ft 71kts
25-May-20 19:55 34.198491 -118.460345 332 6125ft 100kts
25-May-20 19:56 34.216801 -118.476875 304 6753ft 93kts
25-May-20 19:57 34.223441 -118.504899 271 7370ft 92kts
25-May-20 19:58 34.223349 -118.534374 270 7978ft 92kts
25-May-20 19:59 34.223308 -118.567090 273 8669ft 90kts
25-May-20 20:00 34.241277 -118.583167 339 9261ft 89kts
25-May-20 20:01 34.264115 -118.594050 339 9879ft 87kts
25-May-20 20:02 34.287146 -118.605304 339 10502ft 86kts
25-May-20 20:04 34.309989 -118.612590 31 11085ft 88kts
25-May-20 20:05 34.322078 -118.590804 61 11363ft 107kts
25-May-20 20:06 34.336491 -118.559718 60 11167ft 155kts
25-May-20 20:07 34.354636 -118.521023 60 11112ft 157kts
25-May-20 20:08 34.371971 -118.484051 60 11108ft 151kts
25-May-20 20:09 34.390812 -118.448074 53 11077ft 150kts
25-May-20 20:10 34.411444 -118.415286 52 11025ft 143kts
25-May-20 20:11 34.432569 -118.381738 52 11045ft 145kts
25-May-20 20:12 34.454985 -118.346041 52 11075ft 145kts
25-May-20 20:13 34.477480 -118.310197 52 11107ft 145kts
25-May-20 20:14 34.501061 -118.272597 52 11077ft 149kts
25-May-20 20:15 34.525395 -118.233738 52 10991ft 151kts
25-May-20 20:16 34.549775 -118.194748 52 10958ft 149kts
25-May-20 20:17 34.572640 -118.158150 52 10946ft 147kts
25-May-20 20:18 34.595179 -118.122045 52 10989ft 145kts
25-May-20 20:18 34.616199 -118.088334 52 11025ft 147kts
25-May-20 20:20 34.634815 -118.036417 82 11126ft 151kts
25-May-20 20:21 34.640596 -117.981319 82 11163ft 154kts
25-May-20 20:21 34.645428 -117.936907 82 11167ft 153kts
25-May-20 20:23 34.652479 -117.872155 82 11077ft 156kts
25-May-20 20:23 34.657577 -117.825135 82 10994ft 156kts
25-May-20 20:24 34.663936 -117.766915 78 10902ft 149kts
25-May-20 20:26 34.681196 -117.697364 71 10732ft 146kts
25-May-20 20:26 34.692993 -117.651465 72 10663ft 143kts
25-May-20 20:27 34.704551 -117.606378 71 10778ft 136kts
25-May-20 20:28 34.715674 -117.562915 71 10953ft 132kts
25-May-20 20:29 34.726611 -117.520106 71 11060ft 134kts
25-May-20 20:30 34.737969 -117.475567 70 11213ft 140kts
25-May-20 20:31 34.749551 -117.429998 70 11247ft 145kts
25-May-20 20:32 34.761844 -117.381545 70 11052ft 153kts
25-May-20 20:33 34.774216 -117.332684 71 10853ft 154kts
25-May-20 20:34 34.786713 -117.283272 71 10743ft 149kts
25-May-20 20:35 34.798435 -117.236894 71 10937ft 139kts
25-May-20 20:36 34.809882 -117.191561 71 11035ft 142kts
25-May-20 20:37 34.821493 -117.145409 71 11121ft 142kts
25-May-20 20:38 34.833054 -117.099385 70 11209ft 142kts
25-May-20 20:39 34.844703 -117.053003 69 11181ft 149kts
25-May-20 20:40 34.856954 -117.004020 68 11073ft 153kts
25-May-20 20:41 34.869397 -116.954173 67 10989ft 155kts
25-May-20 20:42 34.881958 -116.903797 66 10989ft 156kts
25-May-20 20:43 34.894630 -116.852904 66 10989ft 159kts
25-May-20 20:44 34.907382 -116.801503 66 10989ft 158kts
25-May-20 20:45 34.920075 -116.750218 66 10989ft 157kts
25-May-20 20:46 34.932600 -116.699573 66 10989ft 156kts
25-May-20 20:47 34.945075 -116.649035 67 10989ft 154kts
25-May-20 20:48 34.957372 -116.599121 67 10990ft 153kts
25-May-20 20:49 34.974013 -116.551988 56 10994ft 150kts
25-May-20 20:50 34.993975 -116.507415 56 10998ft 149kts
25-May-20 20:51 35.013684 -116.463092 57 11004ft 148kts
25-May-20 20:52 35.033348 -116.418774 57 11011ft 148kts
25-May-20 20:53 35.052921 -116.374619 58 11015ft 148kts
25-May-20 20:54 35.072292 -116.330869 58 11016ft 148kts
25-May-20 20:55 35.091941 -116.286431 58 11016ft 148kts
25-May-20 20:56 35.111162 -116.242899 58 11019ft 149kts
25-May-20 20:57 35.130859 -116.198229 58 11019ft 149kts
25-May-20 20:58 35.150540 -116.153539 58 11019ft 149kts
25-May-20 20:59 35.170215 -116.108805 58 11019ft 149kts
25-May-20 21:00 35.189853 -116.064095 58 11019ft 149kts
25-May-20 21:01 35.209508 -116.019288 58 11019ft 149kts
25-May-20 21:02 35.229179 -115.974385 58 11019ft 149kts
25-May-20 21:03 35.248718 -115.929725 58 11019ft 149kts
25-May-20 21:04 35.268323 -115.884858 58 11023ft 149kts
25-May-20 21:05 35.287874 -115.840052 58 11030ft 149kts
25-May-20 21:06 35.307429 -115.795183 58 11036ft 149kts
25-May-20 21:07 35.333514 -115.756422 44 11042ft 147kts
25-May-20 21:08 35.361311 -115.719730 44 11048ft 147kts
25-May-20 21:09 35.389110 -115.682651 45 11053ft 147kts
25-May-20 21:10 35.416771 -115.645717 45 11054ft 147kts
25-May-20 21:11 35.444447 -115.608725 45 11054ft 147kts
25-May-20 21:12 35.472005 -115.571850 45 11054ft 147kts
25-May-20 21:13 35.499683 -115.534773 45 11054ft 147kts
25-May-20 21:14 35.527267 -115.497797 44 11054ft 147kts
25-May-20 21:15 35.554945 -115.460668 44 11052ft 147kts
25-May-20 21:16 35.582658 -115.423446 44 11026ft 147kts
25-May-20 21:17 35.610279 -115.386309 44 11026ft 147kts
25-May-20 21:18 35.637621 -115.349506 45 11026ft 147kts
25-May-20 21:19 35.665395 -115.312084 45 11027ft 147kts
25-May-20 21:20 35.693023 -115.274826 45 11027ft 147kts
25-May-20 21:21 35.720535 -115.237687 45 11026ft 147kts
25-May-20 21:22 35.748101 -115.200421 45 11026ft 147kts
25-May-20 21:23 35.775638 -115.163121 45 11023ft 147kts
25-May-20 21:24 35.811912 -115.140419 22 10571ft 147kts
25-May-20 21:25 35.849090 -115.121770 21 9709ft 142kts
25-May-20 21:26 35.886775 -115.107493 11 8847ft 141kts
25-May-20 21:27 35.925899 -115.105892 354 8000ft 141kts
25-May-20 21:28 35.963425 -115.119406 343 7174ft 142kts
25-May-20 21:29 35.996412 -115.134315 333 7010ft 110kts
25-May-20 21:30 36.021679 -115.152261 332 6803ft 112kts
25-May-20 21:31 36.050102 -115.171599 332 6360ft 119kts
25-May-20 21:32 36.079660 -115.190106 347 5943ft 120kts
25-May-20 21:33 36.111975 -115.182285 18 5531ft 124kts
25-May-20 21:34 36.142436 -115.162378 35 4970ft 131kts
25-May-20 21:35 36.143479 -115.126275 137 4425ft 122kts
25-May-20 21:36 36.123044 -115.140320 238 3237ft 88kts
25-May-20 21:37 36.104526 -115.153486 206 2296ft 78kts
25-May-20 21:38 36.093874 -115.160108 256 2105ft 0kts
25-May-20 21:39 36.095184 -115.161345 12 2105ft 4kts

Navigation Log

Ident Type
Flight plan parsing failed, navigation log unavailable